createdAt,value
2022-12-11T00:03:34.642Z,87.34
2022-12-11T00:08:34.416Z,87.34
2022-12-11T00:13:33.545Z,87.35
2022-12-11T00:18:32.885Z,87.38
2022-12-11T00:23:31.476Z,87.38
2022-12-11T00:28:30.912Z,87.48
2022-12-11T00:33:30.920Z,87.46
2022-12-11T00:38:30.312Z,87.57
2022-12-11T00:43:29.830Z,87.58
2022-12-11T00:48:29.351Z,87.54
2022-12-11T00:53:29.110Z,87.58
2022-12-11T00:58:28.898Z,87.58
2022-12-11T01:03:28.135Z,87.65
2022-12-11T01:08:27.349Z,87.67
2022-12-11T01:13:26.944Z,87.67
2022-12-11T01:18:26.388Z,87.77
2022-12-11T01:23:25.106Z,87.67
2022-12-11T01:28:24.212Z,87.71
2022-12-11T01:33:23.189Z,87.70
2022-12-11T01:38:22.291Z,87.72
2022-12-11T01:43:20.965Z,87.70
2022-12-11T01:48:26.080Z,87.66
2022-12-11T01:53:33.681Z,87.52
2022-12-11T01:58:38.882Z,87.51
2022-12-11T02:03:38.240Z,87.56
2022-12-11T02:08:37.151Z,87.55
2022-12-11T02:13:46.484Z,87.67
2022-12-11T02:18:56.973Z,87.67
2022-12-11T02:24:26.596Z,87.66
2022-12-11T02:29:32.362Z,87.59
2022-12-11T02:34:42.696Z,87.68
2022-12-11T02:39:46.668Z,87.68
2022-12-11T02:44:48.330Z,87.69
2022-12-11T02:49:52.042Z,87.73
2022-12-11T02:54:53.437Z,87.61
2022-12-11T02:59:51.989Z,87.60
2022-12-11T03:04:52.035Z,87.51
2022-12-11T03:09:52.682Z,87.48
2022-12-11T03:14:52.623Z,87.51
2022-12-11T03:20:02.159Z,87.56
2022-12-11T03:25:10.685Z,87.59
2022-12-11T03:30:15.559Z,87.59
2022-12-11T03:35:24.808Z,87.55
2022-12-11T03:40:27.878Z,87.61
2022-12-11T03:45:29.968Z,87.61
2022-12-11T03:50:32.756Z,87.61
2022-12-11T03:55:34.442Z,87.63
2022-12-11T04:00:34.066Z,87.58
2022-12-11T04:05:33.088Z,87.61
2022-12-11T04:10:31.888Z,87.63
2022-12-11T04:15:30.503Z,87.69
2022-12-11T04:20:47.509Z,87.69
2022-12-11T04:25:46.631Z,87.69
2022-12-11T04:30:51.336Z,87.62
2022-12-11T04:35:50.954Z,87.59
2022-12-11T04:40:49.791Z,87.59
2022-12-11T04:45:49.204Z,87.59
2022-12-11T04:50:48.085Z,87.56
2022-12-11T04:55:47.244Z,87.59
2022-12-11T05:00:47.077Z,87.61
2022-12-11T05:05:52.071Z,87.61
2022-12-11T05:11:01.381Z,87.56
2022-12-11T05:16:00.635Z,87.54
2022-12-11T05:21:06.546Z,87.53
2022-12-11T05:26:08.968Z,87.53
2022-12-11T05:31:13.269Z,87.53
2022-12-11T05:36:18.362Z,87.56
2022-12-11T05:41:20.843Z,87.55
2022-12-11T05:46:24.549Z,87.56
2022-12-11T05:51:24.230Z,87.57
2022-12-11T05:56:26.571Z,87.56
2022-12-11T06:01:30.336Z,87.53
2022-12-11T06:06:30.265Z,87.54
2022-12-11T06:11:31.918Z,87.53
2022-12-11T06:16:31.046Z,87.59
2022-12-11T06:21:33.233Z,87.63
2022-12-11T06:26:33.247Z,87.65
2022-12-11T06:31:32.685Z,87.71
2022-12-11T06:36:31.928Z,87.70
2022-12-11T06:41:33.780Z,87.72
2022-12-11T06:46:33.074Z,87.71
2022-12-11T06:51:33.199Z,87.72
2022-12-11T06:56:32.444Z,87.73
2022-12-11T07:01:31.994Z,87.71
2022-12-11T07:06:35.237Z,87.70
2022-12-11T07:11:34.324Z,87.72
2022-12-11T07:16:33.465Z,87.76
2022-12-11T07:21:33.071Z,87.75
2022-12-11T07:26:32.661Z,87.77
2022-12-11T07:31:33.431Z,87.78
2022-12-11T07:36:34.025Z,87.79
2022-12-11T07:41:33.075Z,87.80
2022-12-11T07:46:35.045Z,87.77
2022-12-11T07:51:38.117Z,87.77
2022-12-11T07:56:37.919Z,87.76
2022-12-11T08:01:39.479Z,87.73
2022-12-11T08:06:41.242Z,87.74
2022-12-11T08:11:40.595Z,87.75
2022-12-11T08:16:43.239Z,87.73
2022-12-11T08:21:43.694Z,87.70
2022-12-11T08:26:42.321Z,87.66
2022-12-11T08:31:43.301Z,87.71
2022-12-11T08:36:44.144Z,87.70
2022-12-11T08:41:42.896Z,87.75
2022-12-11T08:46:42.014Z,87.76
2022-12-11T08:51:41.622Z,87.76
2022-12-11T08:56:41.520Z,87.79
2022-12-11T09:01:42.155Z,87.79
2022-12-11T09:06:41.368Z,87.78
2022-12-11T09:11:42.375Z,87.78
2022-12-11T09:16:44.047Z,87.78
2022-12-11T09:21:44.305Z,87.54
2022-12-11T09:26:44.134Z,87.63
2022-12-11T09:31:43.510Z,87.56
2022-12-11T09:36:45.561Z,87.44
2022-12-11T09:42:01.309Z,87.52
2022-12-11T09:47:02.568Z,87.50
2022-12-11T09:52:15.270Z,87.37
2022-12-11T09:57:35.504Z,87.40
2022-12-11T10:02:49.250Z,87.44
2022-12-11T10:08:00.810Z,87.37
2022-12-11T10:13:12.085Z,87.27
2022-12-11T10:18:21.326Z,87.09
2022-12-11T10:23:28.922Z,87.11
2022-12-11T10:28:31.199Z,87.11
2022-12-11T10:33:43.007Z,87.13
2022-12-11T10:38:47.036Z,87.11
2022-12-11T10:43:49.008Z,87.08
2022-12-11T10:48:54.806Z,87.06
2022-12-11T10:54:04.084Z,87.13
2022-12-11T10:59:06.978Z,86.87
2022-12-11T11:04:16.353Z,86.85
2022-12-11T11:09:35.629Z,86.90
2022-12-11T11:14:35.500Z,86.94
2022-12-11T11:19:40.853Z,86.96
2022-12-11T11:24:44.068Z,87.03
2022-12-11T11:29:48.895Z,87.05
2022-12-11T11:34:50.605Z,87.18
2022-12-11T11:39:51.670Z,86.91
2022-12-11T11:45:04.653Z,86.95
2022-12-11T11:50:13.368Z,87.14
2022-12-11T11:55:23.109Z,87.27
2022-12-11T12:00:33.373Z,86.93
2022-12-11T12:05:47.311Z,87.08
2022-12-11T12:10:55.382Z,87.10
2022-12-11T12:16:01.598Z,87.24
2022-12-11T12:21:14.582Z,87.38
2022-12-11T12:26:27.733Z,87.57
2022-12-11T12:31:57.675Z,87.64
2022-12-11T12:37:12.646Z,87.37
2022-12-11T12:42:23.478Z,87.49
2022-12-11T12:47:25.679Z,87.59
2022-12-11T12:52:32.276Z,87.76
2022-12-11T12:57:31.697Z,87.66
2022-12-11T13:02:31.437Z,87.75
2022-12-11T13:07:33.862Z,87.77
2022-12-11T13:12:47.557Z,87.83
2022-12-11T13:17:46.103Z,87.77
2022-12-11T13:23:09.323Z,87.62
2022-12-11T13:28:25.441Z,87.73
2022-12-11T13:33:27.161Z,87.94
2022-12-11T13:38:27.243Z,87.77
2022-12-11T13:43:31.481Z,87.73
2022-12-11T13:48:39.418Z,87.83
2022-12-11T13:53:38.316Z,87.95
2022-12-11T13:58:41.575Z,87.98
2022-12-11T14:03:43.435Z,88.06
2022-12-11T14:08:49.333Z,88.15
2022-12-11T14:13:49.076Z,88.25
2022-12-11T14:18:50.255Z,88.27
2022-12-11T14:23:58.895Z,88.38
2022-12-11T14:28:58.804Z,88.47
2022-12-11T14:34:04.969Z,88.48
2022-12-11T14:39:12.654Z,88.59
2022-12-11T14:44:17.529Z,88.62
2022-12-11T14:49:26.196Z,88.57
2022-12-11T14:54:34.189Z,88.70
2022-12-11T14:59:37.825Z,88.84
2022-12-11T15:04:38.391Z,88.96
2022-12-11T15:09:43.412Z,89.12
2022-12-11T15:14:52.861Z,89.24
2022-12-11T15:19:57.442Z,89.39
2022-12-11T15:24:58.432Z,89.44
2022-12-11T15:29:58.210Z,89.55
2022-12-11T15:35:00.144Z,89.62
2022-12-11T15:40:02.479Z,89.75
2022-12-11T15:45:03.130Z,89.87
2022-12-11T15:50:10.293Z,89.86
2022-12-11T15:55:12.276Z,89.94
2022-12-11T16:00:21.801Z,89.83
2022-12-11T16:05:21.872Z,89.83
2022-12-11T16:10:22.939Z,89.82
2022-12-11T16:15:24.112Z,89.95
2022-12-11T16:20:24.851Z,89.91
2022-12-11T16:25:24.381Z,89.94
2022-12-11T16:30:24.028Z,89.96
2022-12-11T16:35:27.033Z,89.98
2022-12-11T16:40:29.133Z,89.95
2022-12-11T16:45:30.041Z,89.90
2022-12-11T16:50:29.684Z,89.86
2022-12-11T16:55:29.418Z,89.84
2022-12-11T17:00:29.780Z,89.86
2022-12-11T17:05:28.898Z,89.82
2022-12-11T17:10:27.983Z,89.77
2022-12-11T17:15:26.822Z,89.75
2022-12-11T17:20:26.323Z,89.71
2022-12-11T17:25:26.084Z,89.73
2022-12-11T17:30:25.818Z,89.68
2022-12-11T17:35:24.783Z,89.71
2022-12-11T17:40:24.605Z,89.65
2022-12-11T17:45:24.154Z,89.56
2022-12-11T17:50:23.499Z,89.45
2022-12-11T17:55:23.460Z,89.50
2022-12-11T18:00:25.433Z,89.47
2022-12-11T18:05:28.570Z,89.38
2022-12-11T18:10:31.536Z,89.44
2022-12-11T18:15:30.651Z,89.51
2022-12-11T18:20:32.067Z,89.51
2022-12-11T18:25:31.164Z,89.61
2022-12-11T18:30:31.287Z,89.52
2022-12-11T18:35:30.827Z,89.59
2022-12-11T18:40:30.838Z,89.49
2022-12-11T18:45:30.666Z,89.41
2022-12-11T18:50:30.238Z,89.47
2022-12-11T18:55:29.914Z,89.50
2022-12-11T19:00:29.567Z,89.53
2022-12-11T19:05:28.759Z,89.56
2022-12-11T19:10:28.745Z,89.63
2022-12-11T19:15:27.822Z,89.63
2022-12-11T19:20:47.907Z,89.68
2022-12-11T19:25:50.821Z,89.66
2022-12-11T19:30:51.267Z,89.71
2022-12-11T19:35:50.336Z,89.83
2022-12-11T19:40:49.526Z,89.79
2022-12-11T19:45:49.238Z,89.77
2022-12-11T19:50:48.397Z,89.79
2022-12-11T19:55:54.766Z,89.93
2022-12-11T20:00:54.423Z,89.94
2022-12-11T20:05:54.321Z,89.92
2022-12-11T20:10:54.116Z,89.93
2022-12-11T20:15:53.925Z,89.95
2022-12-11T20:20:53.847Z,89.97
2022-12-11T20:25:58.828Z,89.93
2022-12-11T20:31:04.502Z,89.88
2022-12-11T20:36:07.331Z,89.88
2022-12-11T20:41:07.135Z,89.82
2022-12-11T20:46:09.134Z,89.80
2022-12-11T20:51:13.957Z,89.90
2022-12-11T20:56:18.159Z,89.91
2022-12-11T21:01:21.230Z,89.90
2022-12-11T21:06:28.444Z,89.90
2022-12-11T21:11:28.953Z,89.84
2022-12-11T21:16:28.820Z,89.79
2022-12-11T21:21:28.912Z,89.81
2022-12-11T21:26:29.194Z,89.86
2022-12-11T21:31:29.084Z,89.82
2022-12-11T21:36:29.170Z,89.76
2022-12-11T21:41:30.317Z,89.78
2022-12-11T21:46:32.429Z,89.84
2022-12-11T21:51:38.615Z,89.82
2022-12-11T21:56:39.878Z,89.82
2022-12-11T22:01:46.119Z,89.74
2022-12-11T22:06:47.443Z,89.84
2022-12-11T22:11:49.281Z,89.91
2022-12-11T22:16:51.363Z,89.79
2022-12-11T22:21:51.873Z,89.74
2022-12-11T22:26:51.855Z,89.80
2022-12-11T22:31:51.221Z,89.83
2022-12-11T22:36:50.322Z,89.84
2022-12-11T22:41:51.089Z,89.89
2022-12-11T22:46:52.033Z,89.89
2022-12-11T22:51:52.327Z,89.92
2022-12-11T22:56:51.593Z,89.95
2022-12-11T23:01:50.247Z,89.97
2022-12-11T23:06:49.888Z,90.12
2022-12-11T23:11:49.183Z,90.21
2022-12-11T23:16:48.444Z,90.34
2022-12-11T23:21:48.260Z,90.38
2022-12-11T23:26:48.277Z,90.44
2022-12-11T23:31:47.141Z,90.52
2022-12-11T23:36:46.751Z,90.53
2022-12-11T23:41:45.480Z,90.50
2022-12-11T23:46:45.138Z,90.50
2022-12-11T23:51:44.199Z,90.56
2022-12-11T23:56:43.767Z,90.52
